Aviation Digital Data Service (ADDS)

Output produced by METARs form (1454 UTC 15 November 2018)
found at http://aviationweather.gov/metar/data/
 
METAR text: UBBB 151430Z 13009KT 9999 BKN025 12/07 Q1021 R88/D NOSIG
Conditions at: UBBB (BAKU/BINE ARPT , AZ) observed 1430 UTC 15 November 2018
Temperature: 12.0°C (54°F)
Dewpoint: 7.0°C (45°F) [RH = 71%]
Pressure (altimeter): 30.15 inches Hg (1021.0 mb)
Winds: from the SE (130 degrees) at 10 MPH (9 knots; 4.6 m/s)
Visibility: 6 or more miles (10+ km)
Ceiling: 2500 feet AGL
Clouds: broken clouds at 2500 feet AGL
Weather: no significant weather observed at this time

METAR text: UBBB 151400Z 12010KT 9999 BKN025 12/08 Q1021 R88/D NOSIG
Conditions at: UBBB (BAKU/BINE ARPT , AZ) observed 1400 UTC 15 November 2018
Temperature: 12.0°C (54°F)
Dewpoint: 8.0°C (46°F) [RH = 76%]
Pressure (altimeter): 30.15 inches Hg (1021.0 mb)
Winds: from the ESE (120 degrees) at 12 MPH (10 knots; 5.1 m/s)
Visibility: 6 or more miles (10+ km)
Ceiling: 2500 feet AGL
Clouds: broken clouds at 2500 feet AGL
Weather: no significant weather observed at this time

Forecast for: UBBB (BAKU/BINE ARPT , AZ)
Text: TAF UBBB 151109Z 1512/1612 14012KT 9999 SCT025 BKN100 TX13/1512Z TN09/1602Z
Forecast period: 1200 to 1800 UTC 15 November 2018
Forecast type: FROM: standard forecast or significant change
Winds: from the SE (140 degrees) at 14 MPH (12 knots; 6.2 m/s)
Visibility: 6 or more miles 10+ km)
Ceiling: 10000 feet AGL
Clouds: scattered clouds at 2500 feet AGL
broken clouds at 10000 feet AGL
Weather: no significant weather forecast for this period
Text: BECMG 1518/1520 VRB04KT
Forecast period: 1800 UTC 15 November 2018 to 0600 UTC 16 November 2018
Forecast type: BECOMING: Conditions expected to become as follows by 2000 UTC 15 November 2018
Winds: variable direction winds at 5 MPH (4 knots; 2.1 m/s)
Visibility: 6 or more miles 10+ km)
Ceiling: 10000 feet AGL
Clouds: scattered clouds at 2500 feet AGL
broken clouds at 10000 feet AGL
Weather: no significant weather forecast for this period
Text: TEMPO 1520/1606 09006KT BKN008
Forecast period: 2000 UTC 15 November 2018 to 0600 UTC 16 November 2018
Forecast type: TEMPORARY: The following changes expected for less than half the time period
Winds: from the E (90 degrees) at 7 MPH (6 knots; 3.1 m/s)
Visibility: missing
Ceiling: 800 feet AGL
Clouds: broken clouds at 800 feet AGL
Weather: no significant weather forecast for this period
Text: BECMG 1606/1608 12012KT
Forecast period: 0600 to 1200 UTC 16 November 2018
Forecast type: BECOMING: Conditions expected to become as follows by 0800 UTC 16 November 2018
Winds: from the ESE (120 degrees) at 14 MPH (12 knots; 6.2 m/s)
Visibility: 6 or more miles 10+ km)
Ceiling: 10000 feet AGL
Clouds: scattered clouds at 2500 feet AGL
broken clouds at 10000 feet AGL
Weather: no significant weather forecast for this period